Time;durP1;ratioP1;P1;durP2;ratioP2;P2;SDS_P1;SDS_P2;PMS_P1;PMS_P2;Temp;Humidity;BMP_temperature;BMP_pressure;BME280_temperature;BME280_humidity;BME280_pressure;Samples;Min_cycle;Max_cycle;Signal;HPM_P1;HPM_P2
2022/11/25 00:02:16;;;;;;;24.53;4.03;;;8.00;99.90;;;;;;4986460;28;20040;-52
2022/11/25 00:04:41;;;;;;;15.20;2.83;;;8.00;99.90;;;;;;5008367;28;20117;-50
2022/11/25 00:07:07;;;;;;;16.50;3.17;;;8.00;99.90;;;;;;5002352;28;20046;-49
2022/11/25 00:09:32;;;;;;;22.27;3.57;;;8.00;99.90;;;;;;5007350;28;20053;-55
2022/11/25 00:11:58;;;;;;;15.80;3.60;;;8.00;99.90;;;;;;5003414;28;20042;-51
2022/11/25 00:14:23;;;;;;;11.43;2.90;;;8.00;99.90;;;;;;4997267;28;20042;-54
2022/11/25 00:16:49;;;;;;;23.80;3.97;;;8.00;99.90;;;;;;5013078;28;20049;-54
2022/11/25 00:19:14;;;;;;;22.90;4.30;;;8.00;99.90;;;;;;5013575;28;20049;-54
2022/11/25 00:21:40;;;;;;;15.10;3.63;;;8.00;99.90;;;;;;5012945;28;20033;-58
2022/11/25 00:24:06;;;;;;;16.43;3.60;;;7.90;99.90;;;;;;4999499;28;20062;-50
2022/11/25 00:26:34;;;;;;;18.13;3.55;;;7.90;99.90;;;;;;5007953;28;20046;-51
2022/11/25 00:29:02;;;;;;;19.27;3.67;;;7.90;99.90;;;;;;5012943;28;20065;-53
2022/11/25 00:31:32;;;;;;;20.30;5.28;;;7.90;99.90;;;;;;5013208;28;20042;-53
2022/11/25 00:33:58;;;;;;;15.90;3.05;;;7.90;99.90;;;;;;5010707;28;20117;-53
2022/11/25 00:36:29;;;;;;;26.50;3.75;;;7.90;99.90;;;;;;5011611;28;20436;-53
2022/11/25 00:38:57;;;;;;;24.48;3.53;;;7.90;99.90;;;;;;5009737;28;20037;-54
2022/11/25 00:46:53;;;;;;;14.75;3.95;;;7.90;99.90;;;;;;4993271;28;20050;-56
2022/11/25 00:49:19;;;;;;;15.37;3.70;;;7.90;99.90;;;;;;4993183;28;20042;-53
2022/11/25 00:51:44;;;;;;;19.67;4.00;;;7.90;99.90;;;;;;4993087;28;20488;-54
2022/11/25 00:54:10;;;;;;;21.57;3.87;;;7.90;99.90;;;;;;4994059;28;20614;-56
2022/11/25 00:56:35;;;;;;;13.53;3.00;;;7.90;99.90;;;;;;4994352;28;20073;-54
2022/11/25 00:59:02;;;;;;;14.57;3.50;;;7.90;99.90;;;;;;5012889;28;20038;-54
2022/11/25 01:01:28;;;;;;;11.90;2.88;;;7.90;99.90;;;;;;5000254;28;20403;-53
2022/11/25 01:03:53;;;;;;;13.10;3.87;;;7.90;99.90;;;;;;5011342;28;20034;-56
2022/11/25 01:06:20;;;;;;;16.93;4.07;;;7.90;99.90;;;;;;5012383;28;20046;-54
2022/11/25 01:08:46;;;;;;;17.13;2.90;;;7.90;99.90;;;;;;5012710;28;20048;-50
2022/11/25 01:11:15;;;;;;;16.30;3.50;;;7.90;99.90;;;;;;5012433;28;20050;-49
2022/11/25 01:13:41;;;;;;;11.82;3.08;;;7.90;99.90;;;;;;5012036;28;20048;-53
2022/11/25 01:16:14;;;;;;;15.40;2.72;;;7.90;99.90;;;;;;5010495;28;20116;-50
2022/11/25 01:18:41;;;;;;;8.18;3.10;;;7.90;99.90;;;;;;5011411;28;20507;-50
2022/11/25 01:21:08;;;;;;;15.90;3.35;;;7.90;99.90;;;;;;5012356;28;20045;-54
2022/11/25 01:23:34;;;;;;;17.48;3.17;;;7.90;99.90;;;;;;5011794;28;20037;-53
2022/11/25 01:26:03;;;;;;;16.30;2.90;;;7.90;99.90;;;;;;5009392;28;20068;-51
2022/11/25 01:28:29;;;;;;;14.48;3.67;;;7.90;99.90;;;;;;5011635;28;20030;-51
2022/11/25 01:31:19;;;;;;;17.92;3.17;;;8.00;99.90;;;;;;5012028;28;20140;-50
2022/11/25 01:33:46;;;;;;;18.17;3.80;;;8.00;99.90;;;;;;5008607;28;20458;-52
2022/11/25 01:36:14;;;;;;;15.20;3.20;;;8.00;99.90;;;;;;5010193;28;20116;-53
2022/11/25 01:38:41;;;;;;;14.18;2.63;;;8.00;99.90;;;;;;5011837;28;20042;-50
2022/11/25 01:41:09;;;;;;;14.38;3.92;;;8.00;99.90;;;;;;5000431;28;20042;-53
2022/11/25 01:43:35;;;;;;;18.38;3.20;;;8.10;99.90;;;;;;5004237;28;20087;-55
2022/11/25 01:46:06;;;;;;;;;;;8.10;99.90;;;;;;5012145;28;20041;-51
2022/11/25 01:48:41;;;;;;;13.98;2.38;;;8.10;99.90;;;;;;4995367;28;19918;-51
2022/11/25 01:51:30;;;;;;;17.10;3.58;;;8.10;99.90;;;;;;4995839;28;20038;-53
2022/11/25 01:54:00;;;;;;;11.90;2.67;;;8.20;99.90;;;;;;5005650;28;20183;-52
2022/11/25 01:56:29;;;;;;;15.75;4.07;;;8.20;99.90;;;;;;5011638;28;20046;-50
2022/11/25 01:58:55;;;;;;;13.95;3.75;;;8.20;99.90;;;;;;5005140;28;20403;-50
2022/11/25 02:01:21;;;;;;;14.65;3.22;;;8.20;99.90;;;;;;4994531;28;20043;-51
2022/11/25 02:03:49;;;;;;;23.25;3.28;;;8.20;99.90;;;;;;4991391;28;20049;-50
2022/11/25 02:06:27;;;;;;;14.98;3.95;;;8.20;99.90;;;;;;4991539;28;20046;-49
2022/11/25 02:09:02;;;;;;;20.30;3.75;;;8.20;99.90;;;;;;4992534;28;20109;-50
2022/11/25 02:11:29;;;;;;;15.98;3.72;;;8.20;99.90;;;;;;4991909;28;20038;-54
2022/11/25 02:13:55;;;;;;;22.02;3.85;;;8.20;99.90;;;;;;4991338;28;20512;-50
2022/11/25 02:16:21;;;;;;;21.30;3.00;;;8.20;99.90;;;;;;5006445;28;20518;-54
2022/11/25 02:18:48;;;;;;;27.53;4.40;;;8.20;99.90;;;;;;5009149;28;20069;-52
2022/11/25 02:21:24;;;;;;;23.77;3.83;;;8.20;99.90;;;;;;5010697;28;20045;-52
2022/11/25 02:24:24;;;;;;;17.95;4.13;;;8.20;99.90;;;;;;5011074;28;20038;-50
2022/11/25 02:26:49;;;;;;;15.95;3.30;;;8.20;99.90;;;;;;4990832;28;20117;-51
2022/11/25 02:29:15;;;;;;;16.47;3.80;;;8.20;99.90;;;;;;4991120;28;20126;-55
2022/11/25 02:31:42;;;;;;;15.23;3.27;;;8.20;99.90;;;;;;4992117;28;20117;-53
2022/11/25 02:34:09;;;;;;;18.55;3.67;;;8.20;99.90;;;;;;4990937;28;20098;-50
2022/11/25 02:36:35;;;;;;;16.98;4.05;;;8.20;99.90;;;;;;4991137;28;20038;-50
2022/11/25 02:39:02;;;;;;;20.55;4.38;;;8.20;99.90;;;;;;4991162;28;20503;-52
2022/11/25 02:41:44;;;;;;;20.05;4.18;;;8.10;99.90;;;;;;4992205;28;20042;-55
2022/11/25 02:44:09;;;;;;;16.67;3.90;;;8.10;99.90;;;;;;4990311;28;20123;-53
2022/11/25 02:46:35;;;;;;;24.83;5.37;;;8.10;99.90;;;;;;4991151;28;20082;-54
2022/11/25 02:49:01;;;;;;;21.93;4.73;;;8.10;99.90;;;;;;4989874;28;20038;-54
2022/11/25 02:51:30;;;;;;;18.98;3.88;;;8.10;99.90;;;;;;5006023;28;20281;-53
2022/11/25 02:53:56;;;;;;;22.33;4.05;;;8.10;99.90;;;;;;5010114;28;20530;-53
2022/11/25 02:56:24;;;;;;;18.05;3.90;;;8.00;99.90;;;;;;5010304;28;20546;-55
2022/11/25 02:58:49;;;;;;;18.77;4.63;;;8.00;99.90;;;;;;5008900;28;20045;-53
2022/11/25 03:01:15;;;;;;;17.33;4.53;;;8.00;99.90;;;;;;5007082;28;20050;-54
2022/11/25 03:03:41;;;;;;;21.80;4.55;;;8.00;99.90;;;;;;4990933;28;20562;-54
2022/11/25 03:06:07;;;;;;;18.97;4.87;;;8.00;99.90;;;;;;4990063;28;20132;-54
2022/11/25 03:08:33;;;;;;;;;;;8.00;99.90;;;;;;4990191;28;20061;-54
2022/11/25 03:10:59;;;;;;;19.30;4.18;;;8.00;99.90;;;;;;4991370;28;19972;-56
2022/11/25 03:13:24;;;;;;;19.47;4.17;;;8.00;99.90;;;;;;4990048;28;20136;-53
2022/11/25 03:15:50;;;;;;;19.48;4.18;;;8.00;99.90;;;;;;4990819;28;20043;-52
2022/11/25 03:18:15;;;;;;;16.70;4.47;;;8.00;99.90;;;;;;4990465;28;20046;-54
2022/11/25 03:20:41;;;;;;;19.23;3.77;;;8.10;99.90;;;;;;4990766;28;20042;-52
2022/11/25 03:23:07;;;;;;;21.57;5.30;;;8.00;99.90;;;;;;4991138;28;20484;-55
2022/11/25 03:25:34;;;;;;;23.00;5.05;;;8.00;99.90;;;;;;4991127;28;20034;-55
2022/11/25 03:28:00;;;;;;;24.40;5.88;;;8.00;99.90;;;;;;4990182;28;20096;-54
2022/11/25 03:30:27;;;;;;;20.47;5.30;;;8.10;99.90;;;;;;4990873;28;20045;-50
2022/11/25 03:32:52;;;;;;;19.10;4.40;;;8.10;99.90;;;;;;4991578;28;20053;-55
2022/11/25 03:35:18;;;;;;;22.27;5.33;;;8.10;99.90;;;;;;4990676;28;20042;-50
2022/11/25 03:37:44;;;;;;;22.23;5.07;;;8.10;99.90;;;;;;4989292;28;20042;-52
2022/11/25 03:40:11;;;;;;;22.23;5.47;;;8.10;99.90;;;;;;4990450;28;20081;-50
2022/11/25 03:42:37;;;;;;;26.52;5.72;;;8.00;99.90;;;;;;4990516;28;20388;-55
2022/11/25 03:45:03;;;;;;;31.30;5.90;;;8.10;99.90;;;;;;4991582;28;20049;-54
2022/11/25 03:47:29;;;;;;;17.17;4.75;;;8.10;99.90;;;;;;4990915;28;20050;-52
2022/11/25 03:49:55;;;;;;;18.33;5.30;;;8.10;99.90;;;;;;4994363;28;20042;-51
2022/11/25 03:52:20;;;;;;;21.63;4.87;;;8.10;99.90;;;;;;4994646;28;20038;-50
2022/11/25 03:54:46;;;;;;;22.92;4.32;;;8.10;99.90;;;;;;4994734;28;20153;-53
2022/11/25 03:57:12;;;;;;;13.93;4.53;;;8.10;99.90;;;;;;4994314;28;20042;-53
2022/11/25 03:59:37;;;;;;;21.52;4.90;;;8.10;99.90;;;;;;4994034;28;20042;-55
2022/11/25 04:02:03;;;;;;;18.20;5.63;;;8.10;99.90;;;;;;4994262;28;20089;-50
2022/11/25 04:04:28;;;;;;;22.90;5.40;;;8.10;99.90;;;;;;5010159;28;20034;-51
2022/11/25 04:06:54;;;;;;;25.70;4.87;;;8.10;99.90;;;;;;4993899;28;20137;-53
2022/11/25 04:09:20;;;;;;;25.98;5.13;;;8.20;99.90;;;;;;4993854;28;20114;-52
2022/11/25 04:14:30;;;;;;;20.02;4.63;;;8.20;99.90;;;;;;4993762;28;20042;-50
2022/11/25 04:16:55;;;;;;;19.98;4.80;;;8.20;99.90;;;;;;5012310;28;20499;-51
2022/11/25 04:19:21;;;;;;;14.10;3.83;;;8.20;99.90;;;;;;5012888;28;20042;-53
2022/11/25 04:21:47;;;;;;;21.83;4.55;;;8.20;99.90;;;;;;5013113;28;20038;-53
2022/11/25 04:24:12;;;;;;;19.37;4.67;;;8.20;99.90;;;;;;5012872;28;20037;-51
2022/11/25 04:26:38;;;;;;;20.27;4.47;;;8.20;99.90;;;;;;5013265;28;20034;-49
2022/11/25 04:29:04;;;;;;;22.57;4.83;;;8.20;99.90;;;;;;5012657;28;20068;-52
2022/11/25 04:31:29;;;;;;;24.55;4.60;;;8.30;99.90;;;;;;4993719;28;20035;-52
2022/11/25 04:33:55;;;;;;;21.10;5.18;;;8.30;99.90;;;;;;4993069;28;20042;-50
2022/11/25 04:36:21;;;;;;;14.43;3.30;;;8.30;99.90;;;;;;4993427;28;20491;-52
2022/11/25 04:38:46;;;;;;;24.83;5.28;;;8.40;99.90;;;;;;4992922;28;20050;-53
2022/11/25 04:41:12;;;;;;;23.43;4.67;;;8.40;99.90;;;;;;5007324;28;20461;-52
2022/11/25 04:43:38;;;;;;;20.50;4.63;;;8.50;99.90;;;;;;5012469;28;20092;-51
2022/11/25 04:46:04;;;;;;;20.77;4.10;;;8.50;99.90;;;;;;5012873;28;20047;-56
2022/11/25 04:48:29;;;;;;;22.73;3.90;;;8.60;99.90;;;;;;5013164;28;20124;-51
2022/11/25 04:50:55;;;;;;;16.27;4.23;;;8.70;99.90;;;;;;5003487;28;20130;-51
2022/11/25 04:53:20;;;;;;;21.57;4.40;;;8.70;99.90;;;;;;4992348;28;20288;-53
2022/11/25 04:55:46;;;;;;;22.60;4.93;;;8.70;99.90;;;;;;4993108;28;20050;-53
2022/11/25 04:58:12;;;;;;;19.17;4.47;;;8.70;99.90;;;;;;4993299;28;20042;-54
2022/11/25 05:00:38;;;;;;;15.93;3.92;;;8.70;99.90;;;;;;4994051;28;20099;-52
2022/11/25 05:03:04;;;;;;;19.90;4.53;;;8.80;99.90;;;;;;4992517;28;20053;-53
2022/11/25 05:05:29;;;;;;;17.67;4.18;;;8.70;99.90;;;;;;4992780;28;20038;-52
2022/11/25 05:07:55;;;;;;;18.27;4.40;;;8.80;99.90;;;;;;4993613;28;20524;-53
2022/11/25 05:10:21;;;;;;;14.30;4.38;;;8.80;99.90;;;;;;4993976;28;20060;-52
2022/11/25 05:12:47;;;;;;;20.47;4.10;;;8.80;99.90;;;;;;4995157;28;20039;-56
2022/11/25 05:15:12;;;;;;;20.38;5.40;;;8.80;99.90;;;;;;5009943;28;20045;-53
2022/11/25 05:17:38;;;;;;;17.43;6.33;;;8.80;99.90;;;;;;5001285;28;20515;-56
2022/11/25 05:20:05;;;;;;;25.58;5.22;;;8.80;99.90;;;;;;5012288;28;20042;-57
2022/11/25 05:22:32;;;;;;;17.83;5.38;;;8.80;99.90;;;;;;5009628;28;20125;-51
2022/11/25 05:24:58;;;;;;;15.80;5.68;;;8.80;99.90;;;;;;5012005;28;20112;-55
2022/11/25 05:27:25;;;;;;;17.15;5.65;;;8.80;99.90;;;;;;5010738;28;20172;-54
2022/11/25 05:29:51;;;;;;;18.60;6.80;;;8.70;99.90;;;;;;5012383;28;20519;-54
2022/11/25 05:32:17;;;;;;;23.38;6.00;;;8.70;99.90;;;;;;5010248;28;20125;-56
2022/11/25 05:34:43;;;;;;;27.07;7.33;;;8.70;99.90;;;;;;5011527;28;20033;-56
2022/11/25 05:37:11;;;;;;;22.60;6.55;;;8.70;99.90;;;;;;5009537;28;20350;-53
2022/11/25 05:39:37;;;;;;;19.75;5.18;;;8.70;99.90;;;;;;5004285;28;20046;-54
2022/11/25 05:42:03;;;;;;;18.40;5.75;;;8.70;99.90;;;;;;4992346;28;20427;-56
2022/11/25 05:44:28;;;;;;;18.23;5.45;;;8.70;99.90;;;;;;5004325;28;20108;-56
2022/11/25 05:46:54;;;;;;;21.60;6.67;;;8.70;99.90;;;;;;5011733;28;20052;-54
2022/11/25 05:49:19;;;;;;;25.50;7.53;;;8.60;99.90;;;;;;5010344;28;20041;-54
2022/11/25 05:51:46;;;;;;;27.48;8.50;;;8.60;99.90;;;;;;5011594;28;20069;-51
2022/11/25 05:54:11;;;;;;;22.20;7.40;;;8.60;99.90;;;;;;5002430;28;20097;-50
2022/11/25 05:56:37;;;;;;;20.23;7.03;;;8.60;99.90;;;;;;4992454;28;20038;-50
2022/11/25 05:59:03;;;;;;;27.58;8.00;;;8.60;99.90;;;;;;4991864;28;20039;-53
2022/11/25 06:01:29;;;;;;;25.55;7.00;;;8.60;99.90;;;;;;4991916;28;20050;-53
2022/11/25 06:03:58;;;;;;;21.55;7.07;;;8.60;99.90;;;;;;4996233;28;20038;-53
2022/11/25 06:06:24;;;;;;;21.23;7.65;;;8.60;99.90;;;;;;5011027;28;20177;-50
2022/11/25 06:08:49;;;;;;;21.10;8.20;;;8.60;99.90;;;;;;5011540;28;20125;-50
2022/11/25 06:11:16;;;;;;;21.43;7.73;;;8.60;99.90;;;;;;5010494;28;20125;-55
2022/11/25 06:13:43;;;;;;;22.23;8.02;;;8.60;99.90;;;;;;5009929;28;20493;-52
2022/11/25 06:16:20;;;;;;;24.70;8.13;;;8.60;99.90;;;;;;4999157;28;20491;-54
2022/11/25 06:18:46;;;;;;;21.75;7.90;;;8.60;99.90;;;;;;5010825;28;20817;-50
2022/11/25 06:21:13;;;;;;;24.92;7.82;;;8.60;99.90;;;;;;5011039;28;20038;-53
2022/11/25 06:23:39;;;;;;;24.48;7.40;;;8.60;99.90;;;;;;5010904;28;20053;-52
2022/11/25 06:26:17;;;;;;;24.13;7.53;;;8.60;99.90;;;;;;4994707;28;20034;-50
2022/11/25 06:28:43;;;;;;;18.63;6.65;;;8.60;99.90;;;;;;4991732;28;20042;-50
2022/11/25 06:31:12;;;;;;;20.83;7.90;;;8.50;99.90;;;;;;4999934;28;20041;-51
2022/11/25 06:33:37;;;;;;;25.88;7.55;;;8.60;99.90;;;;;;4995819;28;20113;-50
2022/11/25 06:36:05;;;;;;;28.83;6.93;;;8.60;99.90;;;;;;5003852;28;20652;-51
2022/11/25 06:38:31;;;;;;;24.70;7.45;;;8.50;99.90;;;;;;5009730;28;20045;-52
2022/11/25 06:41:01;;;;;;;18.60;6.95;;;8.50;99.90;;;;;;5010875;28;20049;-56
2022/11/25 06:43:26;;;;;;;22.48;6.40;;;8.50;99.90;;;;;;5010256;28;20051;-58
2022/11/25 06:45:52;;;;;;;17.73;6.13;;;8.50;99.90;;;;;;5008736;28;20030;-50
2022/11/25 06:48:17;;;;;;;24.80;6.43;;;8.50;99.90;;;;;;5010792;28;20073;-50
2022/11/25 06:50:43;;;;;;;24.30;6.53;;;8.60;99.90;;;;;;5010476;28;20077;-53
2022/11/25 06:53:08;;;;;;;16.80;5.40;;;8.60;99.90;;;;;;5005165;28;20037;-51
2022/11/25 06:55:34;;;;;;;14.67;5.47;;;8.60;99.90;;;;;;5009653;28;20169;-51
2022/11/25 06:57:59;;;;;;;19.57;5.70;;;8.60;99.90;;;;;;5004260;28;20498;-52
2022/11/25 07:00:25;;;;;;;18.33;6.03;;;8.60;99.90;;;;;;5007781;28;20053;-51
2022/11/25 07:02:50;;;;;;;18.23;5.23;;;8.60;99.90;;;;;;4992873;28;20415;-55
2022/11/25 07:05:16;;;;;;;14.57;5.07;;;8.60;99.90;;;;;;4995969;28;20134;-53
2022/11/25 07:07:41;;;;;;;18.10;4.67;;;8.70;99.90;;;;;;5004245;28;20038;-51
2022/11/25 07:10:07;;;;;;;13.53;5.60;;;8.60;99.90;;;;;;4996867;28;20042;-55
2022/11/25 07:12:33;;;;;;;13.88;4.47;;;8.60;99.90;;;;;;4991898;28;20094;-54
2022/11/25 07:14:58;;;;;;;13.40;4.90;;;8.60;99.90;;;;;;4990977;28;20042;-55
2022/11/25 07:17:24;;;;;;;13.37;4.30;;;8.60;99.90;;;;;;5000377;28;20044;-57
2022/11/25 07:19:49;;;;;;;17.73;5.37;;;8.70;99.90;;;;;;4991651;28;20435;-51
2022/11/25 07:22:15;;;;;;;11.40;4.33;;;8.70;99.90;;;;;;4991595;28;20487;-51
2022/11/25 07:24:40;;;;;;;15.93;4.77;;;8.70;99.90;;;;;;4994844;28;20038;-54
2022/11/25 07:27:07;;;;;;;16.50;4.13;;;8.70;99.90;;;;;;4998995;28;20050;-50
2022/11/25 07:29:34;;;;;;;12.40;3.97;;;8.70;99.90;;;;;;5004497;28;20113;-53
2022/11/25 07:32:00;;;;;;;14.65;4.53;;;8.70;99.90;;;;;;5004935;28;20389;-56
2022/11/25 07:34:25;;;;;;;15.97;4.47;;;8.70;99.90;;;;;;5000977;28;20049;-53
2022/11/25 07:36:51;;;;;;;11.57;3.97;;;8.70;99.90;;;;;;5002456;28;20042;-52
2022/11/25 07:39:21;;;;;;;9.83;3.90;;;8.70;99.90;;;;;;5010040;28;20111;-54
2022/11/25 07:41:51;;;;;;;13.52;4.32;;;8.70;99.90;;;;;;5018415;28;20038;-54
2022/11/25 07:44:17;;;;;;;16.88;4.10;;;8.70;99.90;;;;;;5020719;28;20077;-55
2022/11/25 07:46:46;;;;;;;11.70;4.30;;;8.70;99.90;;;;;;5018285;28;20499;-50
2022/11/25 07:49:14;;;;;;;15.05;5.15;;;8.70;99.90;;;;;;4999016;28;20623;-52
2022/11/25 07:51:49;;;;;;;19.73;4.45;;;8.70;99.90;;;;;;4994374;28;20049;-55
2022/11/25 07:54:15;;;;;;;9.10;4.60;;;8.70;99.90;;;;;;5000242;28;20038;-53
2022/11/25 07:56:41;;;;;;;;;;;8.60;99.90;;;;;;4997766;28;20299;-54
2022/11/25 07:59:11;;;;;;;12.70;4.07;;;8.60;99.90;;;;;;4994303;28;19926;-54
2022/11/25 08:01:36;;;;;;;10.43;3.92;;;8.60;99.90;;;;;;4994364;28;20101;-56
2022/11/25 08:04:02;;;;;;;12.27;4.63;;;8.60;99.90;;;;;;4993508;28;20074;-55
2022/11/25 08:06:28;;;;;;;15.97;4.00;;;8.50;99.90;;;;;;4993998;28;20431;-54
2022/11/25 08:08:55;;;;;;;16.35;4.38;;;8.60;99.90;;;;;;5013101;28;20276;-57
2022/11/25 08:11:27;;;;;;;17.40;4.15;;;8.50;99.90;;;;;;5010163;28;20164;-53
2022/11/25 08:13:54;;;;;;;14.05;4.65;;;8.50;99.90;;;;;;5001882;28;20158;-53
2022/11/25 08:16:22;;;;;;;10.52;3.95;;;8.50;99.90;;;;;;4994661;28;20118;-52
2022/11/25 08:18:48;;;;;;;17.20;3.67;;;8.50;99.90;;;;;;4994642;28;20407;-54
2022/11/25 08:21:15;;;;;;;10.75;3.22;;;8.50;99.90;;;;;;5004143;28;20100;-53
2022/11/25 08:23:42;;;;;;;10.93;3.95;;;8.50;99.90;;;;;;5005983;28;20066;-50
2022/11/25 08:26:12;;;;;;;17.52;3.53;;;8.40;99.90;;;;;;5003576;28;20045;-54
2022/11/25 08:28:40;;;;;;;9.55;4.05;;;8.50;99.90;;;;;;5002847;28;20033;-51
2022/11/25 08:31:17;;;;;;;11.68;3.47;;;8.40;99.90;;;;;;5002126;28;20042;-56
2022/11/25 08:33:43;;;;;;;17.55;4.93;;;8.50;99.90;;;;;;5000835;28;20085;-50
2022/11/25 08:36:09;;;;;;;9.33;3.43;;;8.50;99.90;;;;;;4999363;28;20069;-54
2022/11/25 08:38:35;;;;;;;12.23;3.45;;;8.70;99.90;;;;;;5002188;28;20078;-52
2022/11/25 08:41:01;;;;;;;12.02;3.80;;;9.10;99.90;;;;;;5010986;28;20080;-53
2022/11/25 08:43:27;;;;;;;9.88;3.38;;;9.40;99.90;;;;;;5006096;28;20088;-51
2022/11/25 08:45:52;;;;;;;9.68;2.55;;;9.60;99.90;;;;;;5006994;28;20061;-51
2022/11/25 08:48:20;;;;;;;12.37;3.33;;;10.10;99.90;;;;;;4995138;28;20523;-55
2022/11/25 08:50:53;;;;;;;15.00;4.22;;;10.40;99.90;;;;;;4999726;28;20442;-52
2022/11/25 08:53:20;;;;;;;9.27;2.55;;;10.80;99.90;;;;;;4997968;28;20093;-51
2022/11/25 08:55:46;;;;;;;9.55;2.42;;;11.20;99.90;;;;;;4993754;28;20030;-55
2022/11/25 08:58:12;;;;;;;7.45;2.85;;;11.70;99.90;;;;;;4993771;28;20559;-52
2022/11/25 09:00:40;;;;;;;7.50;2.60;;;11.80;99.90;;;;;;4993891;28;20046;-55
2022/11/25 09:03:06;;;;;;;5.63;2.15;;;12.00;99.90;;;;;;5002556;28;20420;-52
2022/11/25 09:05:34;;;;;;;9.75;3.13;;;12.10;99.90;;;;;;4999236;28;20101;-51
2022/11/25 09:08:05;;;;;;;13.25;2.60;;;12.20;99.90;;;;;;4998023;28;20177;-52
2022/11/25 09:10:32;;;;;;;10.35;2.92;;;12.10;99.90;;;;;;4992663;28;20443;-55
2022/11/25 09:12:59;;;;;;;10.52;2.75;;;11.90;99.90;;;;;;4996505;28;20133;-50
2022/11/25 09:15:25;;;;;;;8.82;2.72;;;11.90;99.90;;;;;;5004324;28;20042;-50
2022/11/25 09:18:05;;;;;;;7.13;3.20;;;11.80;99.90;;;;;;4992059;28;20042;-54
2022/11/25 09:20:32;;;;;;;8.07;2.38;;;11.80;99.90;;;;;;5001602;28;20489;-56
2022/11/25 09:22:59;;;;;;;6.97;2.78;;;11.90;99.90;;;;;;5004941;28;20065;-51
2022/11/25 09:25:24;;;;;;;7.68;2.60;;;12.20;99.90;;;;;;4993791;28;20110;-53
2022/11/25 09:27:50;;;;;;;5.30;2.22;;;12.60;99.90;;;;;;5000790;28;20138;-52
2022/11/25 09:30:16;;;;;;;14.55;3.28;;;13.00;99.90;;;;;;4993446;28;20057;-56
2022/11/25 09:32:42;;;;;;;8.57;2.55;;;13.40;99.90;;;;;;5010116;28;20049;-57
2022/11/25 09:35:07;;;;;;;9.57;2.65;;;13.80;99.90;;;;;;4991951;28;20030;-53
2022/11/25 09:37:33;;;;;;;5.63;2.00;;;14.10;99.90;;;;;;4992058;28;20050;-52
2022/11/25 09:39:59;;;;;;;5.18;1.75;;;14.30;99.90;;;;;;4999873;28;20049;-55
2022/11/25 09:48:36;;;;;;;8.70;2.60;;;13.90;99.90;;;;;;4992073;28;20046;-55
2022/11/25 09:51:20;;;;;;;6.63;2.45;;;13.90;99.90;;;;;;4991952;28;20042;-54
2022/11/25 09:53:57;;;;;;;6.93;1.92;;;14.40;99.90;;;;;;4992731;28;21162;-54
2022/11/25 09:56:26;;;;;;;;;;;14.70;99.90;;;;;;5010959;28;20451;-56
2022/11/25 09:59:15;;;;;;;6.00;2.13;;;14.70;99.90;;;;;;4996192;28;19918;-55
2022/11/25 10:02:00;;;;;;;7.20;2.00;;;14.70;99.90;;;;;;4990897;28;20057;-55
2022/11/25 10:04:32;;;;;;;9.20;1.73;;;15.20;99.90;;;;;;4993347;28;20045;-56
2022/11/25 10:07:01;;;;;;;9.10;2.60;;;15.70;99.90;;;;;;5011371;28;20050;-58
2022/11/25 10:09:32;;;;;;;4.82;1.98;;;16.20;99.90;;;;;;5010970;28;20041;-57
2022/11/25 10:12:15;;;;;;;4.00;1.55;;;16.50;99.90;;;;;;5010745;28;20042;-54
2022/11/25 10:14:48;;;;;;;6.63;2.10;;;16.40;99.90;;;;;;5009356;28;20407;-57
2022/11/25 10:17:41;;;;;;;9.50;1.98;;;16.10;99.90;;;;;;4991119;28;20042;-54
2022/11/25 10:20:12;;;;;;;7.57;1.83;;;15.90;99.90;;;;;;4991443;28;20243;-58
2022/11/25 10:22:44;;;;;;;10.75;2.33;;;16.10;99.90;;;;;;4992622;28;20077;-53
2022/11/25 10:25:37;;;;;;;10.32;2.90;;;16.50;99.90;;;;;;4991587;28;20053;-55
2022/11/25 10:28:19;;;;;;;12.05;2.13;;;17.40;99.90;;;;;;4989687;28;20436;-54
2022/11/25 10:30:52;;;;;;;3.53;1.67;;;18.00;99.20;;;;;;4990679;28;20129;-57
2022/11/25 10:33:26;;;;;;;6.55;1.42;;;18.10;96.90;;;;;;4992105;28;20038;-55
2022/11/25 10:35:55;;;;;;;12.35;1.92;;;18.30;97.90;;;;;;4991372;28;20042;-53
2022/11/25 10:38:30;;;;;;;9.75;2.03;;;18.50;97.00;;;;;;4991225;28;20034;-56
2022/11/25 10:40:57;;;;;;;5.22;1.08;;;18.80;96.30;;;;;;4991491;28;20435;-54
2022/11/25 10:43:22;;;;;;;4.35;1.38;;;18.80;95.70;;;;;;4989309;28;20038;-51
2022/11/25 10:46:16;;;;;;;6.00;1.58;;;18.90;94.90;;;;;;4994941;28;20049;-54
2022/11/25 10:48:50;;;;;;;7.10;1.40;;;18.60;93.90;;;;;;4985666;28;20057;-55
2022/11/25 10:51:35;;;;;;;5.60;1.48;;;18.50;95.20;;;;;;4991182;28;20042;-56
2022/11/25 10:54:19;;;;;;;8.30;2.05;;;18.40;94.00;;;;;;5001910;28;20456;-51
2022/11/25 10:56:56;;;;;;;8.00;1.65;;;17.70;93.80;;;;;;5009851;28;20040;-53
2022/11/25 10:59:36;;;;;;;5.00;2.13;;;17.10;95.10;;;;;;5006759;28;20042;-55
2022/11/25 11:02:24;;;;;;;6.47;1.50;;;16.70;95.50;;;;;;4998586;28;20033;-54
2022/11/25 11:04:57;;;;;;;4.75;1.92;;;16.60;95.80;;;;;;4990645;28;20525;-52
2022/11/25 11:07:24;;;;;;;7.95;1.75;;;16.90;96.70;;;;;;4990757;28;20389;-56
2022/11/25 11:09:49;;;;;;;6.35;1.52;;;17.20;96.50;;;;;;4990819;28;20388;-51
2022/11/25 11:12:26;;;;;;;7.68;1.33;;;17.70;96.50;;;;;;4990672;28;20065;-52
2022/11/25 11:15:12;;;;;;;7.90;1.88;;;18.20;95.00;;;;;;4990328;28;20380;-55
2022/11/25 11:17:38;;;;;;;6.45;1.77;;;18.60;95.00;;;;;;5010172;28;20277;-52
2022/11/25 11:20:06;;;;;;;7.15;1.77;;;19.20;95.00;;;;;;4995624;28;20463;-52
2022/11/25 11:22:43;;;;;;;10.70;2.22;;;19.50;93.40;;;;;;4991890;28;20046;-51
2022/11/25 11:25:29;;;;;;;7.72;1.88;;;20.00;93.80;;;;;;4990058;28;20038;-55
2022/11/25 11:27:56;;;;;;;8.40;1.85;;;20.50;91.70;;;;;;5007097;28;20045;-54
2022/11/25 11:30:23;;;;;;;;;;;20.70;91.10;;;;;;5010358;28;20491;-54
2022/11/25 11:33:01;;;;;;;11.75;2.03;;;20.60;89.30;;;;;;5010246;28;19924;-52
2022/11/25 11:35:47;;;;;;;8.18;1.73;;;20.40;86.60;;;;;;5009722;28;20057;-55
2022/11/25 11:38:44;;;;;;;8.60;1.83;;;20.20;86.90;;;;;;4994184;28;20042;-52
2022/11/25 11:41:37;;;;;;;7.78;1.20;;;20.00;88.90;;;;;;4997085;28;20450;-52
2022/11/25 11:44:26;;;;;;;6.32;1.42;;;20.30;85.40;;;;;;5010049;28;20046;-56
2022/11/25 11:47:03;;;;;;;6.57;1.65;;;20.30;85.60;;;;;;5008076;28;20042;-51
2022/11/25 11:49:43;;;;;;;6.00;1.08;;;20.10;86.20;;;;;;5010107;28;20539;-54
2022/11/25 11:52:47;;;;;;;5.38;1.17;;;20.50;87.00;;;;;;5009915;28;20148;-54
2022/11/25 11:55:36;;;;;;;7.30;1.75;;;21.00;84.80;;;;;;5009936;28;20046;-51
2022/11/25 11:58:11;;;;;;;4.68;1.05;;;21.60;83.50;;;;;;5008130;28;20053;-58
2022/11/25 12:00:53;;;;;;;8.00;1.60;;;22.10;82.30;;;;;;5009606;28;20594;-52
2022/11/25 12:03:22;;;;;;;6.68;1.38;;;22.40;81.70;;;;;;5008164;28;20053;-51
2022/11/25 12:05:54;;;;;;;8.48;1.65;;;22.70;79.00;;;;;;5009702;28;20531;-56
2022/11/25 12:08:45;;;;;;;5.55;1.52;;;22.80;78.80;;;;;;5008205;28;20034;-54
2022/11/25 12:11:26;;;;;;;5.53;1.10;;;22.40;75.00;;;;;;5013041;28;20041;-52
2022/11/25 12:14:11;;;;;;;5.38;1.38;;;22.40;76.60;;;;;;5013051;28;20049;-56
2022/11/25 12:16:44;;;;;;;5.93;1.00;;;22.30;76.10;;;;;;5011991;28;20521;-55
2022/11/25 12:19:25;;;;;;;11.45;1.35;;;22.30;76.90;;;;;;5012452;28;20046;-56
2022/11/25 12:22:10;;;;;;;6.47;1.33;;;22.40;76.00;;;;;;5013314;28;20038;-55
2022/11/25 12:24:58;;;;;;;4.95;1.58;;;22.10;73.60;;;;;;5011786;28;20121;-55
2022/11/25 12:27:33;;;;;;;10.15;1.80;;;21.40;75.20;;;;;;5012703;28;20036;-56
2022/11/25 12:30:15;;;;;;;4.53;1.00;;;20.50;77.10;;;;;;5006926;28;20090;-57
2022/11/25 12:33:00;;;;;;;9.75;1.38;;;19.60;78.30;;;;;;4993492;28;20679;-57
2022/11/25 12:35:37;;;;;;;12.82;2.15;;;18.70;79.30;;;;;;4993333;28;20562;-55
2022/11/25 12:38:14;;;;;;;6.45;1.52;;;17.90;81.90;;;;;;4993518;28;20068;-59
2022/11/25 12:40:53;;;;;;;6.25;1.42;;;17.30;83.60;;;;;;5000608;28;20038;-60
2022/11/25 12:43:33;;;;;;;13.00;2.33;;;16.70;85.90;;;;;;5012290;28;20065;-58
2022/11/25 12:46:23;;;;;;;7.95;1.52;;;16.20;89.60;;;;;;5012572;28;20034;-57
2022/11/25 12:48:51;;;;;;;15.75;2.30;;;15.60;91.20;;;;;;5012774;28;20160;-55
2022/11/25 12:51:38;;;;;;;7.55;1.70;;;15.20;92.70;;;;;;5003336;28;20050;-56
2022/11/25 12:54:21;;;;;;;7.15;1.45;;;14.80;94.40;;;;;;4992914;28;20053;-56
2022/11/25 12:57:15;;;;;;;9.52;1.73;;;14.60;95.80;;;;;;4993131;28;20062;-56
2022/11/25 13:00:00;;;;;;;9.90;1.73;;;14.50;97.20;;;;;;4992992;28;20564;-58
2022/11/25 13:02:57;;;;;;;10.65;1.60;;;14.60;99.10;;;;;;4993275;28;20069;-53
2022/11/25 13:05:41;;;;;;;9.65;2.15;;;14.80;99.00;;;;;;4992713;28;20113;-54
2022/11/25 13:08:19;;;;;;;12.48;2.10;;;14.70;98.90;;;;;;4992955;28;20116;-53
2022/11/25 13:11:20;;;;;;;15.13;2.10;;;14.40;99.10;;;;;;4992933;28;20589;-56
2022/11/25 13:14:12;;;;;;;7.88;1.90;;;14.20;99.90;;;;;;4992277;28;20117;-55
2022/11/25 13:16:39;;;;;;;9.52;1.75;;;14.00;99.90;;;;;;4991809;28;20038;-53
2022/11/25 13:19:10;;;;;;;10.32;1.85;;;13.90;99.90;;;;;;5002263;28;20042;-52